Time;durP1;ratioP1;P1;durP2;ratioP2;P2;SDS_P1;SDS_P2;PMS_P1;PMS_P2;Temp;Humidity;BMP_temperature;BMP_pressure;BME280_temperature;BME280_humidity;BME280_pressure;Samples;Min_cycle;Max_cycle;Signal;HPM_P1;HPM_P2
2022/12/08 00:10:10;;;;;;;6.65;4.13;;;;;;;;;;10446970;28;20040;-62
2022/12/08 00:15:11;;;;;;;6.90;4.07;;;;;;;;;;10431895;28;20029;-61
2022/12/08 00:20:11;;;;;;;7.85;4.30;;;;;;;;;;10444925;28;20074;-61
2022/12/08 00:25:13;;;;;;;4.93;3.75;;;;;;;;;;10452134;28;20037;-61
2022/12/08 00:30:14;;;;;;;5.78;3.50;;;;;;;;;;10455398;28;20029;-62
2022/12/08 00:35:14;;;;;;;7.22;4.40;;;;;;;;;;10440790;28;20035;-62
2022/12/08 00:40:15;;;;;;;6.72;4.03;;;;;;;;;;10455371;28;20052;-61
2022/12/08 00:45:15;;;;;;;5.70;3.83;;;;;;;;;;10451454;28;20079;-61
2022/12/08 00:50:16;;;;;;;5.20;3.53;;;;;;;;;;10437629;28;20129;-62
2022/12/08 00:55:17;;;;;;;5.65;3.75;;;;;;;;;;10449538;28;20223;-62
2022/12/08 01:00:18;;;;;;;5.53;3.63;;;;;;;;;;10438438;28;20471;-62
2022/12/08 01:05:18;;;;;;;5.40;3.85;;;;;;;;;;10452307;28;20040;-61
2022/12/08 01:10:19;;;;;;;7.00;4.03;;;;;;;;;;10453172;28;20043;-61
2022/12/08 01:15:20;;;;;;;5.05;3.63;;;;;;;;;;10438144;28;20499;-61
2022/12/08 01:20:20;;;;;;;4.18;3.33;;;;;;;;;;10451730;28;20620;-62
2022/12/08 01:25:21;;;;;;;4.18;3.40;;;;;;;;;;10442639;28;20484;-62
2022/12/08 01:30:21;;;;;;;4.78;3.63;;;;;;;;;;10449312;28;20487;-61
2022/12/08 01:35:22;;;;;;;6.43;3.67;;;;;;;;;;10432454;28;20033;-60
2022/12/08 01:40:23;;;;;;;5.22;3.58;;;;;;;;;;10451087;28;20033;-60
2022/12/08 01:45:28;;;;;;;6.38;3.20;;;;;;;;;;10444895;28;20032;-61
2022/12/08 01:50:30;;;;;;;4.22;3.13;;;;;;;;;;10452421;28;20089;-61
2022/12/08 01:55:39;;;;;;;4.47;3.38;;;;;;;;;;10447878;28;20107;-61
2022/12/08 02:00:40;;;;;;;5.32;3.47;;;;;;;;;;10429202;28;20555;-60
2022/12/08 02:05:42;;;;;;;4.97;3.38;;;;;;;;;;10426579;28;20033;-62
2022/12/08 02:10:43;;;;;;;5.55;3.00;;;;;;;;;;10427161;28;20499;-62
2022/12/08 02:16:07;;;;;;;3.55;2.88;;;;;;;;;;10445282;28;20025;-61
2022/12/08 02:21:38;;;;;;;4.13;2.90;;;;;;;;;;10423279;28;20064;-62
2022/12/08 02:27:26;;;;;;;3.55;3.15;;;;;;;;;;10447856;28;20095;-62
2022/12/08 02:32:52;;;;;;;6.47;3.60;;;;;;;;;;10451336;28;20025;-62
2022/12/08 02:38:12;;;;;;;5.43;2.90;;;;;;;;;;10437579;28;20540;-62
2022/12/08 02:43:28;;;;;;;5.38;3.30;;;;;;;;;;10424806;28;20052;-62
2022/12/08 02:48:29;;;;;;;3.63;2.88;;;;;;;;;;10440418;28;20040;-62
2022/12/08 02:53:33;;;;;;;3.25;2.75;;;;;;;;;;10449378;28;20064;-61
2022/12/08 02:59:10;;;;;;;3.42;3.13;;;;;;;;;;10441248;28;20106;-62
2022/12/08 03:04:40;;;;;;;3.33;2.80;;;;;;;;;;10444502;28;20043;-62
2022/12/08 03:09:54;;;;;;;4.10;3.15;;;;;;;;;;10432344;28;20027;-61
2022/12/08 03:15:01;;;;;;;3.10;2.70;;;;;;;;;;10414976;28;20047;-60
2022/12/08 03:20:10;;;;;;;5.57;3.10;;;;;;;;;;10416747;28;20268;-62
2022/12/08 03:25:14;;;;;;;5.20;3.00;;;;;;;;;;10429078;28;20021;-61
2022/12/08 03:30:15;;;;;;;4.78;2.83;;;;;;;;;;10421188;28;20556;-62
2022/12/08 03:35:24;;;;;;;4.22;2.55;;;;;;;;;;10440199;28;20137;-62
2022/12/08 03:40:25;;;;;;;5.70;2.80;;;;;;;;;;10430219;28;20462;-61
2022/12/08 03:45:26;;;;;;;3.25;2.65;;;;;;;;;;10445313;28;20090;-60
2022/12/08 03:50:26;;;;;;;3.80;2.70;;;;;;;;;;10436768;28;20033;-61
2022/12/08 03:55:27;;;;;;;3.45;2.70;;;;;;;;;;10437773;28;20029;-60
2022/12/08 04:00:27;;;;;;;3.65;2.60;;;;;;;;;;10431308;28;20029;-61
2022/12/08 04:05:28;;;;;;;2.78;2.50;;;;;;;;;;10433607;28;20025;-62
2022/12/08 04:10:28;;;;;;;2.92;2.65;;;;;;;;;;10446351;28;20028;-61
2022/12/08 04:15:29;;;;;;;3.03;2.50;;;;;;;;;;10443528;28;20477;-61
2022/12/08 04:20:29;;;;;;;3.05;2.47;;;;;;;;;;10435243;28;20025;-61
2022/12/08 04:25:30;;;;;;;3.13;2.30;;;;;;;;;;10445475;28;20025;-60
2022/12/08 04:30:31;;;;;;;3.08;2.45;;;;;;;;;;10435441;28;20049;-62
2022/12/08 04:35:32;;;;;;;3.40;2.50;;;;;;;;;;10432636;28;20048;-62
2022/12/08 04:40:32;;;;;;;3.28;2.30;;;;;;;;;;10445540;28;20061;-61
2022/12/08 04:45:33;;;;;;;2.53;2.30;;;;;;;;;;10443193;28;20064;-61
2022/12/08 04:50:34;;;;;;;3.60;2.78;;;;;;;;;;10441054;28;20056;-62
2022/12/08 04:55:40;;;;;;;4.10;2.55;;;;;;;;;;10443969;28;20029;-62
2022/12/08 05:00:41;;;;;;;2.35;2.15;;;;;;;;;;10443435;28;20044;-62
2022/12/08 05:05:42;;;;;;;2.28;2.08;;;;;;;;;;10432814;28;20396;-62
2022/12/08 05:10:42;;;;;;;2.80;2.10;;;;;;;;;;10451487;28;20036;-62
2022/12/08 05:15:43;;;;;;;2.92;2.20;;;;;;;;;;10448658;28;20028;-62
2022/12/08 05:20:44;;;;;;;2.50;2.30;;;;;;;;;;10450825;28;20029;-62
2022/12/08 05:25:44;;;;;;;2.55;2.17;;;;;;;;;;10444867;28;20396;-62
2022/12/08 05:30:45;;;;;;;4.15;2.10;;;;;;;;;;10432309;28;20388;-61
2022/12/08 05:35:45;;;;;;;2.75;2.22;;;;;;;;;;10452399;28;20349;-61
2022/12/08 05:40:46;;;;;;;2.83;2.10;;;;;;;;;;10450767;28;20029;-62
2022/12/08 05:45:46;;;;;;;4.05;2.50;;;;;;;;;;10443009;28;20060;-62
2022/12/08 05:50:48;;;;;;;2.90;2.20;;;;;;;;;;10447999;28;20037;-62
2022/12/08 05:55:49;;;;;;;2.67;2.20;;;;;;;;;;10440340;28;20018;-63
2022/12/08 06:00:50;;;;;;;2.33;2.13;;;;;;;;;;10451485;28;20456;-63
2022/12/08 06:05:50;;;;;;;2.78;2.25;;;;;;;;;;10449654;28;20029;-62
2022/12/08 06:10:51;;;;;;;2.42;2.20;;;;;;;;;;10443974;28;20032;-62
2022/12/08 06:15:51;;;;;;;3.08;2.08;;;;;;;;;;10447677;28;20520;-61
2022/12/08 06:21:00;;;;;;;8.45;2.13;;;;;;;;;;10442316;28;20465;-60
2022/12/08 06:26:09;;;;;;;2.58;2.38;;;;;;;;;;10446949;28;20049;-60
2022/12/08 06:31:15;;;;;;;2.88;2.38;;;;;;;;;;10436886;28;20268;-59
2022/12/08 06:36:19;;;;;;;3.90;2.72;;;;;;;;;;10445988;28;20086;-60
2022/12/08 06:41:20;;;;;;;8.30;2.65;;;;;;;;;;10448043;28;20029;-60
2022/12/08 06:46:21;;;;;;;5.25;2.88;;;;;;;;;;10433502;28;20036;-60
2022/12/08 06:51:22;;;;;;;6.15;2.78;;;;;;;;;;10444198;28;20448;-60
2022/12/08 06:56:26;;;;;;;3.60;2.55;;;;;;;;;;10443061;28;20029;-59
2022/12/08 07:01:27;;;;;;;4.70;2.90;;;;;;;;;;10425269;28;20036;-59
2022/12/08 07:06:27;;;;;;;3.95;2.75;;;;;;;;;;10443619;28;20025;-59
2022/12/08 07:11:28;;;;;;;5.88;2.70;;;;;;;;;;10448130;28;20035;-59
2022/12/08 07:16:29;;;;;;;3.08;2.67;;;;;;;;;;10444476;28;20412;-59
2022/12/08 07:21:29;;;;;;;9.20;2.90;;;;;;;;;;10433453;28;20033;-59
2022/12/08 07:26:30;;;;;;;12.13;3.17;;;;;;;;;;10431002;28;20021;-59
2022/12/08 07:31:31;;;;;;;4.50;2.83;;;;;;;;;;10438953;28;20519;-60
2022/12/08 07:36:31;;;;;;;6.38;2.80;;;;;;;;;;10445302;28;20021;-60
2022/12/08 07:41:32;;;;;;;8.68;3.17;;;;;;;;;;10438924;28;20104;-60
2022/12/08 07:46:33;;;;;;;4.65;2.95;;;;;;;;;;10433533;28;20028;-60
2022/12/08 07:51:33;;;;;;;7.45;3.33;;;;;;;;;;10444104;28;20032;-60
2022/12/08 07:56:34;;;;;;;7.80;4.20;;;;;;;;;;10446812;28;20071;-61
2022/12/08 08:01:34;;;;;;;7.93;3.00;;;;;;;;;;10448001;28;20037;-60
2022/12/08 08:06:36;;;;;;;5.68;2.97;;;;;;;;;;10444388;28;20026;-60
2022/12/08 08:11:37;;;;;;;5.50;3.33;;;;;;;;;;10448282;28;20033;-60
2022/12/08 08:16:40;;;;;;;14.85;3.80;;;;;;;;;;10446567;28;20103;-60
2022/12/08 08:21:41;;;;;;;5.65;3.38;;;;;;;;;;10447051;28;20021;-60
2022/12/08 08:26:41;;;;;;;5.47;3.30;;;;;;;;;;10442391;28;20049;-59
2022/12/08 08:31:42;;;;;;;4.43;3.28;;;;;;;;;;10438440;28;20045;-58
2022/12/08 08:36:43;;;;;;;9.25;3.80;;;;;;;;;;10442959;28;20496;-60
2022/12/08 08:41:43;;;;;;;10.60;3.67;;;;;;;;;;10439226;28;20056;-60
2022/12/08 08:46:44;;;;;;;12.18;3.90;;;;;;;;;;10452771;28;20021;-60
2022/12/08 08:51:45;;;;;;;6.05;3.60;;;;;;;;;;10443098;28;20041;-59
2022/12/08 08:56:47;;;;;;;12.25;3.60;;;;;;;;;;10445521;28;20025;-60
2022/12/08 09:01:47;;;;;;;7.63;3.58;;;;;;;;;;10448715;28;20036;-62
2022/12/08 09:06:48;;;;;;;7.07;3.88;;;;;;;;;;10451508;28;20017;-59
2022/12/08 09:11:49;;;;;;;5.78;3.90;;;;;;;;;;10452467;28;20037;-60
2022/12/08 09:16:49;;;;;;;7.50;3.20;;;;;;;;;;10451782;28;20025;-59
2022/12/08 09:21:50;;;;;;;9.75;4.25;;;;;;;;;;10451452;28;20029;-63
2022/12/08 09:26:50;;;;;;;5.15;3.75;;;;;;;;;;10452993;28;20045;-62
2022/12/08 09:31:53;;;;;;;4.93;3.55;;;;;;;;;;10451738;28;20172;-62
2022/12/08 09:36:53;;;;;;;6.50;3.60;;;;;;;;;;10451590;28;20017;-62
2022/12/08 09:42:05;;;;;;;7.45;4.25;;;;;;;;;;10452486;28;20052;-62
2022/12/08 09:47:29;;;;;;;7.25;4.07;;;;;;;;;;10452796;28;20376;-63
2022/12/08 09:52:43;;;;;;;7.00;4.18;;;;;;;;;;10450167;28;20427;-63
2022/12/08 09:58:00;;;;;;;6.07;4.13;;;;;;;;;;10451410;28;20384;-63
2022/12/08 10:03:01;;;;;;;8.25;4.32;;;;;;;;;;10423156;28;20055;-63
2022/12/08 10:08:24;;;;;;;4.68;3.72;;;;;;;;;;10449371;28;20021;-60
2022/12/08 10:14:03;;;;;;;5.28;3.78;;;;;;;;;;10434032;28;20063;-60
2022/12/08 10:19:22;;;;;;;5.65;4.00;;;;;;;;;;10423792;28;20120;-62
2022/12/08 10:24:30;;;;;;;7.85;3.78;;;;;;;;;;10420854;28;20021;-61
2022/12/08 10:29:31;;;;;;;4.22;3.65;;;;;;;;;;10446543;28;20041;-62
2022/12/08 10:34:31;;;;;;;5.18;4.13;;;;;;;;;;10450057;28;20033;-60
2022/12/08 10:39:42;;;;;;;5.93;4.20;;;;;;;;;;10433276;28;20381;-61
2022/12/08 10:45:22;;;;;;;6.93;4.10;;;;;;;;;;10450177;28;20032;-60
2022/12/08 10:50:31;;;;;;;5.82;3.97;;;;;;;;;;10450038;28;20480;-60
2022/12/08 10:55:44;;;;;;;5.47;3.60;;;;;;;;;;10449885;28;20415;-60
2022/12/08 11:00:44;;;;;;;16.02;4.25;;;;;;;;;;10449320;28;20078;-63
2022/12/08 11:05:46;;;;;;;6.63;4.10;;;;;;;;;;10430866;28;20029;-60
2022/12/08 11:10:47;;;;;;;5.80;3.88;;;;;;;;;;10447194;28;20388;-60
2022/12/08 11:15:48;;;;;;;6.22;3.83;;;;;;;;;;10447704;28;20529;-63
2022/12/08 11:20:58;;;;;;;8.23;3.88;;;;;;;;;;10448796;28;20550;-61
2022/12/08 11:26:22;;;;;;;6.88;4.43;;;;;;;;;;10447801;28;20021;-63
2022/12/08 11:31:37;;;;;;;4.85;3.65;;;;;;;;;;10447921;28;20056;-64
2022/12/08 11:36:38;;;;;;;6.93;4.25;;;;;;;;;;10447932;28;20021;-63
2022/12/08 11:41:43;;;;;;;6.60;3.85;;;;;;;;;;10447431;28;20025;-62
2022/12/08 11:46:49;;;;;;;5.72;3.92;;;;;;;;;;10430803;28;20107;-60
2022/12/08 11:52:02;;;;;;;8.45;4.20;;;;;;;;;;10447395;28;20033;-60
2022/12/08 11:57:08;;;;;;;5.53;4.07;;;;;;;;;;10428527;28;20040;-62
2022/12/08 12:02:20;;;;;;;5.65;3.80;;;;;;;;;;10447628;28;20476;-60
2022/12/08 12:08:22;;;;;;;6.38;3.95;;;;;;;;;;10427962;28;20052;-61
2022/12/08 12:14:15;;;;;;;8.15;4.18;;;;;;;;;;10445898;28;20037;-60
2022/12/08 12:19:17;;;;;;;5.60;4.20;;;;;;;;;;10429090;28;20326;-61
2022/12/08 12:24:29;;;;;;;6.38;3.85;;;;;;;;;;10459359;28;20469;-62
2022/12/08 12:29:34;;;;;;;5.80;4.38;;;;;;;;;;10418909;28;20103;-62
2022/12/08 12:34:46;;;;;;;8.75;3.88;;;;;;;;;;10418808;28;20029;-60
2022/12/08 12:40:00;;;;;;;7.10;4.40;;;;;;;;;;10414286;28;20465;-62
2022/12/08 12:45:18;;;;;;;4.35;3.30;;;;;;;;;;10412295;28;20064;-59
2022/12/08 12:50:34;;;;;;;5.05;3.75;;;;;;;;;;10419287;28;20033;-61
2022/12/08 12:55:58;;;;;;;5.28;3.90;;;;;;;;;;10415721;28;20033;-61
2022/12/08 13:01:13;;;;;;;4.90;3.80;;;;;;;;;;10400434;28;20454;-61
2022/12/08 13:06:23;;;;;;;5.85;4.00;;;;;;;;;;10414096;28;20060;-61
2022/12/08 13:11:24;;;;;;;4.70;3.60;;;;;;;;;;10403671;28;20029;-61
2022/12/08 13:16:30;;;;;;;6.45;4.20;;;;;;;;;;10416724;28;20500;-61
2022/12/08 13:21:36;;;;;;;5.47;3.97;;;;;;;;;;10409314;28;20400;-61
2022/12/08 13:26:50;;;;;;;4.97;3.70;;;;;;;;;;10416784;28;20059;-61
2022/12/08 13:31:52;;;;;;;4.80;3.67;;;;;;;;;;10430744;28;20037;-61
2022/12/08 13:37:26;;;;;;;4.97;3.72;;;;;;;;;;10450783;28;20025;-61
2022/12/08 13:42:42;;;;;;;5.78;3.97;;;;;;;;;;10425491;28;20030;-59
2022/12/08 13:48:09;;;;;;;8.50;4.00;;;;;;;;;;10420589;28;20111;-60
2022/12/08 13:53:23;;;;;;;5.20;3.78;;;;;;;;;;10451192;28;20484;-62
2022/12/08 13:58:34;;;;;;;5.20;3.65;;;;;;;;;;10451344;28;20029;-61
2022/12/08 14:03:59;;;;;;;4.85;3.83;;;;;;;;;;10451466;28;20039;-62
2022/12/08 14:09:05;;;;;;;4.68;3.60;;;;;;;;;;10449958;28;20479;-61
2022/12/08 14:14:30;;;;;;;6.80;4.15;;;;;;;;;;10445384;28;20098;-63
2022/12/08 14:19:33;;;;;;;6.00;3.63;;;;;;;;;;10426517;28;20036;-62
2022/12/08 14:25:12;;;;;;;5.65;3.85;;;;;;;;;;10441721;28;20172;-60
2022/12/08 14:30:13;;;;;;;5.30;4.30;;;;;;;;;;10415213;28;20050;-61
2022/12/08 14:35:26;;;;;;;6.20;4.10;;;;;;;;;;10444282;28;20025;-62
2022/12/08 14:40:35;;;;;;;6.22;3.90;;;;;;;;;;10439637;28;20091;-60
2022/12/08 14:45:41;;;;;;;5.65;4.25;;;;;;;;;;10430911;28;20087;-63
2022/12/08 14:50:56;;;;;;;4.07;3.65;;;;;;;;;;10438628;28;20028;-62
2022/12/08 14:55:57;;;;;;;7.70;4.13;;;;;;;;;;10421890;28;20037;-62
2022/12/08 15:00:59;;;;;;;20.88;5.47;;;;;;;;;;10445048;28;20456;-63
2022/12/08 15:06:05;;;;;;;16.50;4.70;;;;;;;;;;10439009;28;20029;-60
2022/12/08 15:11:31;;;;;;;8.60;4.68;;;;;;;;;;10431681;28;20040;-61
2022/12/08 15:16:34;;;;;;;25.85;5.38;;;;;;;;;;10438775;28;20090;-64
2022/12/08 15:21:37;;;;;;;18.23;4.95;;;;;;;;;;10434878;28;20050;-58
2022/12/08 15:26:46;;;;;;;9.20;4.68;;;;;;;;;;10440460;28;20033;-60
2022/12/08 15:31:46;;;;;;;19.77;4.90;;;;;;;;;;10431048;28;20504;-60
2022/12/08 15:36:50;;;;;;;11.15;4.22;;;;;;;;;;10441534;28;20029;-62
2022/12/08 15:41:50;;;;;;;13.82;5.75;;;;;;;;;;10434763;28;20240;-62
2022/12/08 15:46:52;;;;;;;8.85;5.32;;;;;;;;;;10448602;28;20029;-58
2022/12/08 15:51:52;;;;;;;9.32;4.47;;;;;;;;;;10445831;28;20355;-58
2022/12/08 15:56:56;;;;;;;10.95;4.72;;;;;;;;;;10447229;28;20195;-59
2022/12/08 16:01:57;;;;;;;8.07;4.20;;;;;;;;;;10428827;28;20362;-59
2022/12/08 16:06:57;;;;;;;10.27;4.40;;;;;;;;;;10447802;28;20025;-63
2022/12/08 16:17:19;;;;;;;10.25;4.30;;;;;;;;;;10447331;28;20029;-58
2022/12/08 16:22:26;;;;;;;7.70;4.45;;;;;;;;;;10429315;28;20021;-59
2022/12/08 16:27:29;;;;;;;13.25;4.72;;;;;;;;;;10446405;28;20073;-62
2022/12/08 16:32:30;;;;;;;9.30;4.38;;;;;;;;;;10446883;28;20111;-62
2022/12/08 16:37:31;;;;;;;6.22;4.47;;;;;;;;;;10442138;28;20043;-60
2022/12/08 16:42:39;;;;;;;7.80;4.80;;;;;;;;;;10446330;28;20017;-58
2022/12/08 16:47:43;;;;;;;9.32;4.43;;;;;;;;;;10447153;28;20109;-60
2022/12/08 16:52:44;;;;;;;8.27;5.10;;;;;;;;;;10447281;28;20021;-58
2022/12/08 16:57:46;;;;;;;7.78;4.95;;;;;;;;;;10446862;28;20021;-61
2022/12/08 17:02:47;;;;;;;6.22;4.88;;;;;;;;;;10447747;28;20029;-59
2022/12/08 17:07:50;;;;;;;11.18;6.00;;;;;;;;;;10454141;28;20280;-62
2022/12/08 17:12:52;;;;;;;6.40;4.80;;;;;;;;;;10454196;28;20052;-62
2022/12/08 17:17:52;;;;;;;6.38;4.40;;;;;;;;;;10452774;28;20091;-58
2022/12/08 17:22:56;;;;;;;8.43;4.68;;;;;;;;;;10451051;28;20079;-59
2022/12/08 17:27:57;;;;;;;8.30;4.57;;;;;;;;;;10452170;28;20128;-59
2022/12/08 17:32:57;;;;;;;7.75;5.03;;;;;;;;;;10452809;28;20464;-60
2022/12/08 17:37:58;;;;;;;10.88;5.00;;;;;;;;;;10444686;28;20368;-59
2022/12/08 17:42:59;;;;;;;12.60;5.00;;;;;;;;;;10451317;28;20527;-60
2022/12/08 17:47:59;;;;;;;13.02;4.65;;;;;;;;;;10435152;28;20487;-60
2022/12/08 17:53:00;;;;;;;14.63;5.10;;;;;;;;;;10440994;28;20032;-59
2022/12/08 17:58:01;;;;;;;7.45;5.25;;;;;;;;;;10450894;28;20032;-58
2022/12/08 18:03:01;;;;;;;10.30;5.13;;;;;;;;;;10452513;28;20021;-59
2022/12/08 18:08:02;;;;;;;8.25;5.55;;;;;;;;;;10450342;28;20435;-58
2022/12/08 18:13:04;;;;;;;8.25;5.85;;;;;;;;;;10435633;28;20033;-59
2022/12/08 18:18:05;;;;;;;11.75;5.97;;;;;;;;;;10444530;28;20369;-59
2022/12/08 18:23:05;;;;;;;8.10;5.72;;;;;;;;;;10444024;28;20028;-58
2022/12/08 18:28:06;;;;;;;10.02;6.00;;;;;;;;;;10446634;28;20111;-59
2022/12/08 18:33:07;;;;;;;10.27;6.07;;;;;;;;;;10446121;28;20060;-58
2022/12/08 18:38:07;;;;;;;8.75;5.75;;;;;;;;;;10445078;28;20112;-59
2022/12/08 18:43:08;;;;;;;8.32;5.82;;;;;;;;;;10448101;28;20021;-58
2022/12/08 18:48:08;;;;;;;8.63;5.60;;;;;;;;;;10451010;28;20028;-59
2022/12/08 18:53:09;;;;;;;9.30;5.65;;;;;;;;;;10450408;28;20079;-62
2022/12/08 18:58:10;;;;;;;8.57;6.03;;;;;;;;;;10449192;28;20054;-61
2022/12/08 19:03:10;;;;;;;11.82;6.75;;;;;;;;;;10448768;28;20029;-59
2022/12/08 19:08:11;;;;;;;9.93;6.32;;;;;;;;;;10438049;28;20029;-62
2022/12/08 19:13:11;;;;;;;11.82;6.13;;;;;;;;;;10441919;28;20040;-63
2022/12/08 19:18:12;;;;;;;11.38;6.15;;;;;;;;;;10438913;28;20029;-62
2022/12/08 19:23:13;;;;;;;15.30;6.95;;;;;;;;;;10441842;28;20024;-62
2022/12/08 19:28:13;;;;;;;11.93;7.03;;;;;;;;;;10442061;28;20369;-62
2022/12/08 19:33:14;;;;;;;10.38;7.03;;;;;;;;;;10442086;28;20025;-59
2022/12/08 19:38:16;;;;;;;12.07;6.32;;;;;;;;;;10446104;28;20090;-61
2022/12/08 19:48:39;;;;;;;11.50;6.75;;;;;;;;;;10431438;28;20311;-58
2022/12/08 19:53:40;;;;;;;12.77;7.00;;;;;;;;;;10443872;28;20347;-58
2022/12/08 19:58:41;;;;;;;11.85;7.20;;;;;;;;;;10444423;28;20032;-62
2022/12/08 20:03:41;;;;;;;12.85;7.15;;;;;;;;;;10436731;28;20025;-59
2022/12/08 20:08:42;;;;;;;9.45;6.43;;;;;;;;;;10431364;28;20025;-61
2022/12/08 20:13:44;;;;;;;12.52;7.30;;;;;;;;;;10439064;28;20074;-61
2022/12/08 20:18:47;;;;;;;10.35;6.75;;;;;;;;;;10438626;28;20029;-59
2022/12/08 20:23:48;;;;;;;10.25;7.35;;;;;;;;;;10430692;28;20064;-63
2022/12/08 20:28:49;;;;;;;8.50;6.60;;;;;;;;;;10431580;28;20131;-59
2022/12/08 20:33:51;;;;;;;9.85;6.88;;;;;;;;;;10434509;28;20447;-62
2022/12/08 20:38:53;;;;;;;17.50;7.80;;;;;;;;;;10444256;28;20032;-62
2022/12/08 20:43:53;;;;;;;11.90;7.25;;;;;;;;;;10441325;28;20033;-60
2022/12/08 20:48:54;;;;;;;14.05;7.63;;;;;;;;;;10432981;28;20468;-60
2022/12/08 20:53:56;;;;;;;15.40;7.60;;;;;;;;;;10455256;28;20045;-61
2022/12/08 20:58:57;;;;;;;17.95;7.40;;;;;;;;;;10455045;28;20472;-59
2022/12/08 21:03:58;;;;;;;13.30;8.07;;;;;;;;;;10455551;28;20674;-58
2022/12/08 21:08:58;;;;;;;13.80;7.60;;;;;;;;;;10454943;28;20020;-59
2022/12/08 21:13:59;;;;;;;11.20;7.80;;;;;;;;;;10454171;28;20072;-59
2022/12/08 21:19:00;;;;;;;14.90;7.93;;;;;;;;;;10454372;28;20028;-59
2022/12/08 21:24:02;;;;;;;11.75;8.32;;;;;;;;;;10454200;28;20033;-57
2022/12/08 21:29:04;;;;;;;12.68;8.63;;;;;;;;;;10451966;28;20084;-57
2022/12/08 21:34:04;;;;;;;11.70;8.23;;;;;;;;;;10447039;28;20166;-58
2022/12/08 21:39:10;;;;;;;13.75;8.20;;;;;;;;;;10448125;28;20082;-57
2022/12/08 21:44:14;;;;;;;17.65;8.48;;;;;;;;;;10450344;28;20037;-58
2022/12/08 21:49:15;;;;;;;15.55;8.30;;;;;;;;;;10430085;28;20029;-63
2022/12/08 21:54:16;;;;;;;14.00;7.85;;;;;;;;;;10445368;28;20040;-59
2022/12/08 21:59:18;;;;;;;10.57;8.10;;;;;;;;;;10439356;28;20372;-59
2022/12/08 22:04:20;;;;;;;11.98;7.68;;;;;;;;;;10450617;28;20112;-58
2022/12/08 22:09:20;;;;;;;12.35;8.25;;;;;;;;;;10451652;28;20179;-60
2022/12/08 22:14:21;;;;;;;12.18;7.85;;;;;;;;;;10451004;28;20185;-63
2022/12/08 22:19:23;;;;;;;10.10;7.82;;;;;;;;;;10451696;28;20024;-65
2022/12/08 22:24:24;;;;;;;14.18;8.88;;;;;;;;;;10449653;28;20355;-65
2022/12/08 22:29:25;;;;;;;13.00;8.48;;;;;;;;;;10447028;28;20041;-59
2022/12/08 22:34:25;;;;;;;11.07;8.35;;;;;;;;;;10450827;28;20029;-62
2022/12/08 22:39:26;;;;;;;17.80;9.07;;;;;;;;;;10430220;28;20036;-62
2022/12/08 22:44:27;;;;;;;15.52;8.60;;;;;;;;;;10444099;28;20036;-66
2022/12/08 22:49:28;;;;;;;10.52;8.32;;;;;;;;;;10449798;28;20116;-61
2022/12/08 22:54:29;;;;;;;21.25;8.57;;;;;;;;;;10449858;28;20457;-62
2022/12/08 22:59:31;;;;;;;11.90;8.70;;;;;;;;;;10450189;28;20021;-63
2022/12/08 23:04:33;;;;;;;16.15;9.10;;;;;;;;;;10439343;28;20032;-63
2022/12/08 23:09:38;;;;;;;10.80;8.07;;;;;;;;;;10449558;28;20400;-61
2022/12/08 23:14:41;;;;;;;17.10;8.73;;;;;;;;;;10449735;28;20083;-60
2022/12/08 23:19:46;;;;;;;17.67;8.95;;;;;;;;;;10443211;28;20036;-63
2022/12/08 23:24:47;;;;;;;12.07;8.80;;;;;;;;;;10448122;28;20024;-60
2022/12/08 23:29:47;;;;;;;12.10;8.70;;;;;;;;;;10448535;28;20575;-63
2022/12/08 23:34:48;;;;;;;13.30;8.30;;;;;;;;;;10448266;28;20024;-61
2022/12/08 23:39:48;;;;;;;12.15;8.73;;;;;;;;;;10445698;28;20029;-63
2022/12/08 23:44:49;;;;;;;14.05;8.60;;;;;;;;;;10448209;28;20029;-62
2022/12/08 23:49:49;;;;;;;12.00;8.57;;;;;;;;;;10448389;28;20025;-66
2022/12/08 23:54:50;;;;;;;12.38;8.35;;;;;;;;;;10447132;28;20041;-60
2022/12/08 23:59:51;;;;;;;13.65;8.57;;;;;;;;;;10447325;28;20025;-61
